Terminal Aerodrome Forecast
Issued by NWS

Home | Current Version | Previous Version | Text Only | Print | Product List | Glossary On
Versions: 1 2 3 4 5 6 7 8 9 10 11 12 13 14 15
000
FTUS42 KMLB 211120
TAFTIX
TAF
KTIX 211120Z 2112/2212 VRB04KT P6SM SCT120 OVC250
     FM211400 29005KT P6SM SCT015 BKN150
     FM211800 04008KT P6SM SCT030 BKN150
     FM220000 07005KT P6SM SCT030 BKN150
     FM220600 00000KT P6SM FEW030 BKN120=

USA.gov is the U.S. government's official web portal to all federal, state and local government web resources and services.